Mahoning, Pennsylvania
Current Conditions -  °F | °C
As of 1:53 PM on Friday 21 Nov 2014 (Local Time) from KSEG Reporting Station
Clear Clear  
Wind Chill: 27°   Ceiling: Unl
Heat Index: 34°   Visibility: 10mi
Dew Point:   Wind: 9mph
Humidity: 32%   Direction: 290°WNW
Pressure: 30.4"   Gusts: NA
Location:  41.0117°N, 76.6578°W
Report Text: KSEG 211853Z AUTO 29008KT 10SM CLR 01/M14 A3040 RMK AO2 SLP298 T00111139
Loading
Personal Weather Stations






























Interactive Weather Map New forecast layout! Learn more

10-Day Weather Forecast

Advertisements
Track Severe Weather on mobile